Northeast Philadelphia Airport
KPNE : now visible

Aeroporto :











RITROVATECI SU...

 
LOGIN :

Iscrizione | Disclaimer

   EN    FR    IT 

 









Sommario :    VFR   VFR Marginale   IFR   IFR Intensivo   IFR Molto Intensivo
Visibilità : 
Base nubi : 
>= 8 km
>= 3000ft
5 / 8 km
1000 / 3000 ft
1500m / 5 km
500 / 1000 ft
800 / 1500m
200 / 500 ft
< 800m
< 200 ft
Simboli :   Temporali  Nebbia  Neve Forte  Precipitazioni Forti  Vento > 20 kt







- Altitudine del aeroporto : 120 ft


KPNE - Northeast Philadelphia

ULTIMO METAR :
  • 210554Z 00000KT 10SM SCT095 13/09 A2985 RMK AO2 SLP109 T01330094 10189 20128 50006

METARs OBSOLETI :
  • 210454Z 00000KT 10SM CLR 14/09 A2986 RMK AO2 SLP112 T01390094 402330139
  • 210354Z 00000KT 10SM CLR 14/09 A2986 RMK AO2 SLP110 T01440094

TAF KPNE
Valido dal 21 a 06 ore il 22 a 06 ore UTC


210520Z 2106/2206 VRB03KT P6SM SCT070 OVC100
FM211200 19004KT P6SM BKN100
FM211600 22005KT P6SM SCT150
FM212200 VRB04KT P6SM BKN100
FIR KZDC / America del Nord



MetMap, La meteo Aeronautica in un colpo d'occhio ! - Copyright ORBIFLY Dicembre 2007 - Disclaimer

ORBIFLY MET'MAP TEAM :

Programmazione e sviluppo : Alexandra Zaïnal
Concezione e sviluppo : Baudouin d'Aumeries
Co-Programmazione e sviluppo : Marc-Olivier Méhu
Supporto tecnico e logistico : Manuel Goepfert
Aiuto per la traduzione : Arnaldo La Scala

Contatto : metmap@orbifly.com




FONTI E CREDITI :

   NOAA       Earth
Advisory